Skip Navigation Links Skip Navigation Links

Current Weather

Illinois Valley Rgnl-Walter A Duncan Field, Peru, Ill.

For information only: do not use for flight planning or navigation.
Latest weather
Observation time Friday, July 10, 2020 7:55 PM CDT
Local time Friday, July 10, 2020 8:24 PM CDT
Flight conditions Visual Meteorological Conditions
Winds
Wind direction Northwest (320°)
Wind speed 7 mph
Visibility 10 mi.
Sky condition
Ceiling unlimited
Sky clear
Temperature 80°F
Dewpoint 66°F
Altimeter 29.91 in.Hg
Derived measurements
Relative humidity 62%
Heat index 82°F
Density altitude 2323 ft.
Remarks
Fully automated report.
Automated weather observing station with precipitation discriminator.
METAR KVYS 110055Z AUTO 32006KT 10SM CLR 27/19 A2991 RMK AO2 T02680188

Settings

Location code

InnerDrive.Weather 4.0.6770.0 Release CLR 4.0.30319.42000
Copyright ©2018 Inner Drive Technology. All rights reserved. Portions Copyright ©1986-2018 David Braverman.

Find weather

Site navigation


Skip Navigation Links

Place info

Page info

PayPal - The safer, easier way to pay online!

Return home.

Copyright ©2020 Inner Drive Technology. Purveyors of fine, hand-crafted computer software. Page printed 2020-07-11T01:24:34 UTC.